Home > Products > Valid Products > TAF

000
FTUS41 KALY 250500 CCA
TAFGFL
TAF COR
KGFL 250546Z 2506/2606 VRB03KT 1SM BR VV002
      TEMPO 2508/2512 3SM BR SCT002 SCT250
     FM251200 21004KT P6SM SCT250
      TEMPO 2512/2514 4SM BR
     FM251500 22006KT P6SM SCT035
     FM251800 22007KT P6SM BKN040 BKN080
     FM252300 23006KT P6SM SCT025 OVC040
     FM260200 24006KT 6SM BR VCSH SCT025 OVC040=



000
FTUS41 KALY 250500 RRA
TAFALB
TAF
KALB 250541Z 2506/2606 00000KT P6SM MIFG SCT250
      TEMPO 2506/2508 3SM BR SCT250
     FM251200 21004KT P6SM SCT250
      TEMPO 2512/2514 4SM BR
     FM251500 22006KT P6SM SCT035
     FM251800 22007KT P6SM BKN040 BKN080
     FM252300 23006KT P6SM SCT025 OVC040
     FM260200 24006KT 6SM BR VCSH SCT025 OVC040=



000
FTUS41 KALY 250500 RRA
TAFGFL
TAF
KGFL 250541Z 2506/2606 VRB03KT 1/2SM FG VV002
      TEMPO 2508/2512 3SM BR SCT002 SCT250
     FM251200 21004KT P6SM SCT250
      TEMPO 2512/2514 4SM BR
     FM251500 22006KT P6SM SCT035
     FM251800 22007KT P6SM BKN040 BKN080
     FM252300 23006KT P6SM SCT025 OVC040
     FM260200 24006KT 6SM BR VCSH SCT025 OVC040=



000
FTUS41 KALY 250500 RRA
TAFPOU
TAF
KPOU 250541Z 2506/2606 00000KT P6SM SCT250
      TEMPO 2506/2510 3SM BR SCT002
     FM251000 00000KT 3SM BR SCT002 SCT250
      TEMPO 2510/2512 1SM BR BKN002
     FM251200 VRB03KT P6SM SCT250
     FM251600 25006KT P6SM SCT035
     FM252000 24006KT P6SM BKN040 BKN080
     FM252300 25006KT P6SM BKN040=



000
FTUS41 KALY 250400 AAA
TAFPOU
TAF AMD
KPOU 250454Z 2505/2524 00000KT 1 1/2SM BR BKN002 BKN080
      TEMPO 2505/2508 3/4SM BR BKN002
     FM250800 00000KT 3/4SM BR BKN002
      TEMPO 2511/2513 3SM BR SCT002 SCT250
     FM251300 24007KT P6SM SCT250=



000
FTUS41 KALY 250400 AAB
TAFGFL
TAF AMD
KGFL 250454Z 2505/2524 00000KT 1 1/2SM BR BKN002 BKN080
      TEMPO 2505/2508 3/4SM BR BKN002
     FM250800 00000KT 3/4SM BR BKN002
      TEMPO 2511/2513 3SM BR SCT002 SCT250
     FM251300 19005KT P6SM SCT250
     FM252000 22008KT P6SM VCSH BKN035=



000
FTUS41 KALY 250300 AAA
TAFGFL
TAF AMD
KGFL 250326Z 2503/2524 00000KT 4SM BR SCT050
      TEMPO 2503/2506 1SM BR SCT250
     FM250600 00000KT 2SM BR SCT080 SCT250
     FM251300 19005KT P6SM SCT200
     FM252000 22008KT P6SM VCSH BKN035=



000
FTUS41 KALY 242300 CCA
TAFGFL
TAF COR
KGFL 242346Z 2500/2524 02005KT P6SM SCT008 OVC015
      TEMPO 2500/2504 SCT015 BKN035
     FM250400 VRB03KT P6SM SCT080
     FM250600 00000KT 2SM BR SCT080
     FM251300 19005KT P6SM SCT200
     FM252000 22008KT P6SM VCSH BKN035=



000
FTUS41 KALY 242300
TAFPOU
TAF
KPOU 242340Z 2500/2524 36005KT P6SM SCT050
     FM250600 00000KT P6SM MIFG SKC
     FM251200 24007KT P6SM SCT200=



000
FTUS41 KALY 242300
TAFGFL
TAF
KGFL 242340Z 2500/2524 02005KT P6SM SCT008 OVC015
      TEMPO 2500/2504 SCT015 BKN035
     FM250400 VRB03KT P6SM SCT080
     FM250700 00000KT 3SM BR SCT080
     FM251300 19005KT P6SM SCT200
     FM252000 22008KT P6SM VCSH BKN035=



000
FTUS41 KALY 242300
TAFALB
TAF
KALB 242340Z 2500/2524 02005KT P6SM SCT008 BKN035
      TEMPO 2500/2502 BKN008
     FM250600 02005KT P6SM MIFG SCT080
     FM251300 19005KT P6SM SCT120=



000
FTUS41 KALY 242200 AAC
TAFALB
TAF AMD
KALB 242243Z 2423/2518 02005KT P6SM SCT008 OVC050
      TEMPO 2423/2424 SCT003 BKN008 OVC050
     FM250300 31005KT P6SM SCT080
     FM251400 25008KT P6SM SCT060 SCT200=



000
FTUS41 KALY 242100 AAB
TAFGFL
TAF AMD
KGFL 242101Z 2421/2518 03005KT P6SM SCT006 SCT010 OVC025
      TEMPO 2421/2424 BKN006 OVC020
     FM250000 02004KT P6SM FEW006 SCT030 BKN080
     FM250400 VRB03KT P6SM SCT080
     FM250600 00000KT 2SM BR BKN002
     FM251300 19005KT P6SM BKN050=



000
FTUS41 KALY 241900 AAB
TAFALB
TAF AMD
KALB 241957Z 2420/2518 02008KT P6SM BKN006 OVC035
      TEMPO 2420/2422 SCT003 BKN035
     FM242200 34008KT P6SM SCT035 BKN080
     FM250300 31005KT P6SM SCT080
     FM251400 25008KT P6SM SCT060 SCT200=



000
FTUS41 KALY 241900 AAB
TAFALB
TAF AMD
KALB 241957Z 2420/2518 02008KT P6SM BKN006 OVC035
      TEMPO 2420/2422 SCT003 BKN035
     FM242200 34008KT P6SM SCT035 BKN080
     FM250300 31005KT P6SM SCT080
     FM251400 25008KT P6SM SCT060 SCT200=



000
FTUS41 KALY 241900 AAA
TAFGFL
TAF AMD
KGFL 241927Z 2419/2518 09004KT P6SM SCT006 OVC012
      TEMPO 2419/2421 BKN006 OVC019
     FM242100 03005KT P6SM SCT012 OVC030
      TEMPO 2421/2424 SCT030 OVC080
     FM250000 02004KT P6SM SCT030 BKN080
     FM250400 VRB03KT P6SM SCT080
     FM250600 00000KT 2SM BR BKN002
     FM251300 19005KT P6SM BKN050=



000
FTUS41 KALY 241900 AAA
TAFALB
TAF AMD
KALB 241908Z 2419/2518 04006KT P6SM SCT006 OVC035
      TEMPO 2419/2420 BKN006 OVC035
     FM242000 35007KT P6SM SCT015 OVC035
      TEMPO 2420/2423 BKN015 OVC030
     FM242300 32008KT P6SM SCT035 BKN080
     FM250300 31005KT P6SM SCT080
     FM251400 25008KT P6SM SCT060 SCT200=



000
FTUS41 KALY 241700
TAFGFL
TAF
KGFL 241730Z 2418/2518 09004KT P6SM SCT006 OVC012
     FM242000 03005KT P6SM SCT012 OVC030
      TEMPO 2420/2424 SCT030 OVC080
     FM250000 02004KT P6SM SCT030 BKN080
     FM250400 VRB03KT P6SM SCT080
     FM250600 00000KT 2SM BR BKN002
     FM251300 19005KT P6SM BKN050=



000
FTUS41 KALY 241700
TAFALB
TAF
KALB 241730Z 2418/2518 03003KT P6SM -DZ SCT006 BKN015 OVC022
     FM242000 34010KT P6SM SCT015 OVC035
      TEMPO 2420/2423 BKN015 OVC030
     FM242300 32008KT P6SM SCT035 BKN080
     FM250300 31005KT P6SM SCT080
     FM251400 25008KT P6SM SCT060 SCT200=



000
FTUS41 KALY 241700
TAFPOU
TAF
KPOU 241730Z 2418/2518 34010KT P6SM BKN035 BKN040
     FM250100 32004KT P6SM SCT040
     FM250600 00000KT P6SM SKC
     FM251400 27008KT P6SM SCT200=



000
FTUS41 KALY 241500 AAA
TAFGFL
TAF AMD
KGFL 241501Z 2415/2512 04005KT P6SM VCSH OVC020
      TEMPO 2415/2417 BKN010 OVC015
     FM241800 02007KT P6SM OVC035
     FM250100 02004KT P6SM SCT030 BKN080
     FM250400 VRB03KT P6SM SCT080
     FM250600 00000KT 2SM BR BKN002=



000
FTUS41 KALY 241500 AAA
TAFALB
TAF AMD
KALB 241500Z 2415/2512 35008KT P6SM VCSH OVC020
      TEMPO 2415/2417 2SM -RA BR BKN006 OVC013
     FM241800 32010KT P6SM VCSH OVC035
     FM242300 32010KT P6SM SCT035 BKN080
     FM250300 31007KT P6SM SCT080=



000
FTUS41 KALY 241100 CCA
TAFGFL
TAF COR
KGFL 241158Z 2412/2512 05003KT P6SM VCSH SCT005 OVC012
      TEMPO 2412/2415 2SM -RA BR OVC004
     FM241500 04005KT P6SM VCSH OVC020
     FM241800 02007KT P6SM OVC035
     FM250100 02004KT P6SM SCT030 BKN080
     FM250400 VRB03KT P6SM SCT080
     FM250600 00000KT 2SM BR BKN002=



000
FTUS41 KALY 241100
TAFPOU
TAF
KPOU 241133Z 2412/2512 32004KT P6SM VCSH OVC045
      TEMPO 2412/2415 6SM -RA BKN025 OVC035
     FM241500 34009KT P6SM OVC050
     FM242100 34007KT P6SM BKN070
     FM250100 32004KT P6SM SKC=



000
FTUS41 KALY 241100
TAFGFL
TAF
KGFL 241133Z 2412/2512 05003KT P6SM VCSH SCT005 OVC012
      TEMPO 2412/2415 3SM -RA BR OVC003
     FM241500 04005KT P6SM VCSH OVC020
     FM241800 02007KT P6SM OVC035
     FM250100 02004KT P6SM SCT030 BKN080
     FM250400 VRB03KT P6SM SCT080
     FM250600 00000KT 2SM BR BKN002=



000
FTUS41 KALY 241100
TAFALB
TAF
KALB 241133Z 2412/2512 36004KT P6SM -RA SCT007 OVC015
      TEMPO 2412/2415 2SM -RA BR OVC007
     FM241500 35008KT P6SM VCSH OVC020
     FM241800 32010KT P6SM VCSH OVC035
     FM242300 32010KT P6SM SCT035 BKN080
     FM250300 31007KT P6SM SCT080=



000
FTUS41 KALY 241000 AAA
TAFGFL
TAF AMD
KGFL 241010Z 2410/2506 04005KT P6SM VCSH SCT005 OVC015
      TEMPO 2410/2413 4SM -RA BR BKN005 OVC012
     FM241300 04005KT P6SM VCSH OVC020
     FM241600 02007KT P6SM OVC035
     FM242200 02004KT P6SM SCT030 BKN080
     FM250200 VRB03KT P6SM SCT080=



000
FTUS41 KALY 240800 AAB
TAFALB
TAF AMD
KALB 240807Z 2408/2506 35006KT P6SM VCSH SCT004 OVC009
      TEMPO 2408/2412 4SM -RA BR BKN004 OVC009
     FM241200 34007KT P6SM VCSH OVC020
     FM241500 32010KT P6SM VCSH OVC035
     FM242100 32010KT P6SM SCT035 BKN080
     FM250100 31006KT P6SM SCT080=



000
FTUS41 KALY 240800 AAB
TAFALB
TAF AMD
KALB 240807Z 2408/2506 35006KT P6SM VCSH SCT004 OVC009
      TEMPO 2408/2412 4SM -RA BR BKN004 OVC009
     FM241200 34007KT P6SM VCSH OVC020
     FM241500 32010KT P6SM VCSH OVC035
     FM242100 32010KT P6SM SCT035 BKN080
     FM250100 31006KT P6SM SCT080=



000
FTUS41 KALY 240700 AAA
TAFALB
TAF AMD
KALB 240725Z 2407/2506 35006KT P6SM VCSH SCT008 OVC015
      TEMPO 2407/2411 4SM -RA BR BKN008 OVC015
     FM241400 32010KT P6SM VCSH OVC035
     FM242100 32010KT P6SM SCT035 BKN080
     FM250100 31006KT P6SM SCT080=



000
FTUS41 KALY 240500
TAFPOU
TAF
KPOU 240538Z 2406/2506 36006KT P6SM VCSH SCT025 OVC040
      TEMPO 2406/2410 OVC025
     FM241400 34009KT P6SM OVC045
     FM242100 34007KT P6SM BKN070
     FM250100 32004KT P6SM SKC=



000
FTUS41 KALY 240500
TAFGFL
TAF
KGFL 240538Z 2406/2506 04005KT P6SM VCSH OVC015
     FM241600 02007KT P6SM OVC035
     FM242200 02004KT P6SM SCT030 BKN080
     FM250200 VRB03KT P6SM SCT080=



000
FTUS41 KALY 240500
TAFALB
TAF
KALB 240538Z 2406/2506 35007KT P6SM VCSH SCT008 OVC015
      TEMPO 2406/2410 BKN008 OVC015
     FM241400 32010KT P6SM VCSH OVC035
     FM242100 32010KT P6SM SCT035 BKN080
     FM250100 31006KT P6SM SCT080=



000
FTUS41 KALY 240300 AAA
TAFALB
TAF AMD
KALB 240349Z 2404/2424 36010KT P6SM VCSH SCT007 OVC015
      TEMPO 2404/2408 6SM -RA BR BKN008 OVC015
     FM241400 32010KT P6SM VCSH OVC035
     FM242000 32010KT P6SM SCT030 BKN080=



000
FTUS41 KALY 240300 AAA
TAFALB
TAF AMD
KALB 240349Z 2404/2424 36010KT P6SM VCSH SCT007 OVC015
      TEMPO 2404/2408 6SM -RA BR BKN008 OVC015
     FM241400 32010KT P6SM VCSH OVC035
     FM242000 32010KT P6SM SCT030 BKN080=



000
FTUS41 KALY 240200 AAA
TAFPOU
TAF AMD
KPOU 240216Z 2402/2424 36010KT P6SM VCSH OVC040
      TEMPO 2402/2406 36010G20KT OVC030
     FM242000 32010KT P6SM SCT030 BKN080=



000
FTUS41 KALY 240200 AAA
TAFPOU
TAF AMD
KPOU 240216Z 2402/2424 36010KT P6SM VCSH OVC040
      TEMPO 2402/2406 36010G20KT OVC030
     FM242000 32010KT P6SM SCT030 BKN080=



000
FTUS41 KALY 232300 CCA
TAFALB
TAF COR
KALB 232359Z 2400/2424 36010KT P6SM VCSH FEW008 SCT015 OVC030
      TEMPO 2400/2403 5SM -RA BR BKN008 OVC015
     FM242000 32010KT P6SM SCT030 BKN080=



000
FTUS41 KALY 232300
TAFPOU
TAF
KPOU 232337Z 2400/2424 36010KT P6SM VCSH FEW008 SCT025 OVC035
      TEMPO 2400/2404 36010G20KT FEW008 OVC025
     FM242000 32010KT P6SM SCT030 BKN080=



000
FTUS41 KALY 232300
TAFALB
TAF
KALB 232337Z 2400/2424 36010KT P6SM VCSH FEW008 SCT015 OVC030
      TEMPO 2400/2404 5SM -RA BR SCT008 OVC015
     FM242000 32010KT P6SM SCT030 BKN080=



000
FTUS41 KALY 232300
TAFGFL
TAF
KGFL 232337Z 2400/2424 36010KT P6SM VCSH SCT015 OVC030
      TEMPO 2400/2404 5SM -RA BR OVC015
     FM242000 34008KT P6SM SCT030 BKN080=



000
FTUS41 KALY 232200 AAA
TAFPOU
TAF AMD
KPOU 232257Z 2323/2418 36012G22KT P6SM SCT020 OVC035
      TEMPO 2323/2324 6SM -SHRA BR BKN020 OVC035
     FM240500 34010G15KT P6SM VCSH SCT015 OVC025
     FM241400 32012G18KT P6SM SCT025 OVC035=



000
FTUS41 KALY 231900 AAB
TAFGFL
TAF AMD
KGFL 231913Z 2319/2418 01014G22KT 6SM -DZ BR BKN025 OVC035
      TEMPO 2319/2320 4SM -RA BR BKN015 OVC025
     FM240400 35008KT 5SM -RA BR FEW008 OVC015
     FM241300 34010KT P6SM VCSH BKN025 OVC035=



000
FTUS41 KALY 231900 AAB
TAFGFL
TAF AMD
KGFL 231913Z 2319/2418 01014G22KT 6SM -DZ BR BKN025 OVC035
      TEMPO 2319/2320 4SM -RA BR BKN015 OVC025
     FM240400 35008KT 5SM -RA BR FEW008 OVC015
     FM241300 34010KT P6SM VCSH BKN025 OVC035=



000
FTUS41 KALY 231800 AAA
TAFGFL
TAF AMD
KGFL 231808Z 2318/2418 01010G15KT 6SM -DZ BR BKN025 OVC035
      TEMPO 2318/2320 4SM -RA BR BKN015 OVC025
     FM240400 35008KT 5SM -RA BR FEW008 OVC015
     FM241300 34010KT P6SM VCSH BKN025 OVC035=



000
FTUS41 KALY 231800 AAA
TAFGFL
TAF AMD
KGFL 231808Z 2318/2418 01010G15KT 6SM -DZ BR BKN025 OVC035
      TEMPO 2318/2320 4SM -RA BR BKN015 OVC025
     FM240400 35008KT 5SM -RA BR FEW008 OVC015
     FM241300 34010KT P6SM VCSH BKN025 OVC035=



000
FTUS41 KALY 231700
TAFALB
TAF
KALB 231725Z 2318/2418 36010G15KT 6SM -DZ BR SCT008 OVC015
      TEMPO 2318/2320 4SM -RA BR BKN008 OVC015
     FM240400 34009KT 5SM -DZ SCT008 BKN015 OVC025
     FM241300 32011KT P6SM VCSH BKN025 OVC035=



000
FTUS41 KALY 231700
TAFPOU
TAF
KPOU 231725Z 2318/2418 36012G22KT 6SM -DZ BR BKN015 OVC025
      TEMPO 2318/2320 4SM -RA BR SCT008 OVC012
     FM240500 34010G15KT P6SM VCSH SCT015 OVC025
     FM241400 32012G18KT P6SM SCT025 OVC035=



000
FTUS41 KALY 231700
TAFGFL
TAF
KGFL 231725Z 2318/2418 02010G15KT 6SM -DZ BR BKN018 OVC025
      TEMPO 2318/2320 4SM -RA BR SCT008 OVC012
     FM240400 35008KT 5SM -RA BR FEW008 OVC015
     FM241300 34010KT P6SM VCSH BKN025 OVC035=



000
FTUS41 KALY 231600 AAA
TAFPOU
TAF AMD
KPOU 231614Z 2316/2412 36014G22KT 6SM -RA BR OVC015
      TEMPO 2316/2318 3SM RA BR BKN008 OVC015
     FM232300 35012G20KT P6SM -RA OVC035
     FM240100 34010G15KT P6SM VCSH OVC040=



000
FTUS41 KALY 231600 AAA
TAFPOU
TAF AMD
KPOU 231614Z 2316/2412 36014G22KT 6SM -RA BR OVC015
      TEMPO 2316/2318 3SM RA BR BKN008 OVC015
     FM232300 35012G20KT P6SM -RA OVC035
     FM240100 34010G15KT P6SM VCSH OVC040=



000
FTUS41 KALY 231600 AAA
TAFALB
TAF AMD
KALB 231613Z 2316/2412 36010G15KT 6SM -DZ BR SCT008 OVC015
      TEMPO 2316/2318 3SM RA BR BKN008 OVC015
     FM232200 34012G20KT 6SM -RA BR OVC030
     FM240400 33010G15KT P6SM -RA OVC035=



000
FTUS41 KALY 231500 AAA
TAFGFL
TAF AMD
KGFL 231547Z 2316/2412 36010KT 6SM -RA FEW015 OVC025
      TEMPO 2316/2318 2SM RA BKN015 OVC025
     FM232200 36010G15KT 6SM -RA BR SCT015 OVC025
     FM241000 35010G15KT P6SM -RA OVC035=



000
FTUS41 KALY 231100
TAFGFL
TAF
KGFL 231122Z 2312/2412 36010G17KT 6SM -RA OVC025
      TEMPO 2312/2316 3SM RA BR OVC018
     FM232200 36010G15KT 6SM -RA BR SCT015 OVC025
     FM241000 35010G15KT P6SM -RA OVC035=



000
FTUS41 KALY 231100
TAFALB
TAF
KALB 231122Z 2312/2412 36010G15KT 5SM -RA BR SCT008 OVC015
      TEMPO 2312/2314 2SM RA BR OVC008
     FM232200 34012G20KT 6SM -RA BR OVC030
     FM240400 33010G15KT P6SM -RA OVC035=



000
FTUS41 KALY 231100
TAFPOU
TAF
KPOU 231122Z 2312/2412 36014G22KT 6SM -RA OVC015
      TEMPO 2312/2316 3SM RA BR SCT008 OVC012
     FM232300 35012G20KT P6SM -RA OVC035
     FM240100 34010G15KT P6SM VCSH OVC040=



000
FTUS41 KALY 231000 AAB
TAFALB
TAF AMD
KALB 231054Z 2311/2406 36010G16KT 5SM -RA BR SCT008 OVC015
      TEMPO 2311/2315 2SM RA BR OVC008
     FM231700 35012G20KT 5SM -RA BR OVC020=



000
FTUS41 KALY 231000 AAA
TAFPOU
TAF AMD
KPOU 231044Z 2311/2406 36014G24KT 6SM -RA OVC015
      TEMPO 2311/2315 4SM RA BR OVC012
     FM231700 35012G20KT P6SM -RA OVC030=



000
FTUS41 KALY 231000 AAA
TAFGFL
TAF AMD
KGFL 231040Z 2311/2406 36010G16KT 6SM -RA BR OVC025
      TEMPO 2311/2315 3SM RA BR OVC015
     FM231500 36012G18KT 5SM -RA BR OVC020
      TEMPO 2315/2319 3SM RA BR OVC012
     FM240000 36010G15KT 6SM -RA BR OVC020=



000
FTUS41 KALY 230900 AAA
TAFALB
TAF AMD
KALB 230912Z 2309/2406 36010G15KT 6SM -RA BR SCT011 OVC027
      TEMPO 2309/2312 4SM RA BR OVC011
     FM231200 36010G16KT 4SM -RA BR SCT008 OVC015
      TEMPO 2312/2314 2SM RA BR OVC008
     FM231700 35012G20KT 5SM -RA BR OVC020=



000
FTUS41 KALY 230500
TAFGFL
TAF
KGFL 230523Z 2306/2406 01012G20KT P6SM VCSH OVC030
     FM230800 01012G20KT 6SM -RA BR OVC025
      TEMPO 2308/2310 4SM -RA BR OVC015
     FM231000 36012G18KT 4SM -RA BR SCT008 OVC015
      TEMPO 2310/2314 2SM RA BR OVC008
     FM231600 36010G15KT 3SM -RA BR OVC015=



000
FTUS41 KALY 230500
TAFPOU
TAF
KPOU 230523Z 2306/2406 36012G18KT 6SM -RA OVC015
      TEMPO 2306/2310 4SM RA BR OVC012
     FM231000 36010G16KT 6SM -RA BR OVC012
      TEMPO 2310/2314 4SM RA BR
     FM231700 35012G20KT 6SM -RA BR OVC030=



000
FTUS41 KALY 230500
TAFALB
TAF
KALB 230523Z 2306/2406 01012G20KT 6SM -RA BR OVC028
      TEMPO 2306/2309 4SM RA BR OVC015
     FM230900 36010G16KT 4SM -RA BR SCT008 OVC015
      TEMPO 2309/2313 2SM RA BR OVC008
     FM231300 35012G20KT 2SM -RA BR OVC008
     FM231700 35012G20KT 4SM -RA BR SCT008 OVC015=



000
FTUS41 KALY 230300 AAA
TAFALB
TAF AMD
KALB 230356Z 2304/2324 01014G24KT P6SM VCSH OVC028
      TEMPO 2304/2308 4SM -RA BR OVC015
     FM230800 35011KT 3SM -RA BR OVC015
      TEMPO 2308/2312 1SM RA BR OVC007
     FM231700 34010KT 4SM -RA BR SCT008 OVC015=



000
FTUS41 KALY 230300 AAA
TAFALB
TAF AMD
KALB 230356Z 2304/2324 01014G24KT P6SM VCSH OVC028
      TEMPO 2304/2308 4SM -RA BR OVC015
     FM230800 35011KT 3SM -RA BR OVC015
      TEMPO 2308/2312 1SM RA BR OVC007
     FM231700 34010KT 4SM -RA BR SCT008 OVC015=



000
FTUS41 KALY 230200 AAA
TAFGFL
TAF AMD
KGFL 230229Z 2302/2324 01018G26KT P6SM VCSH OVC035
     FM230600 36011KT 3SM -RA BR BKN008 OVC012
      TEMPO 2307/2311 1SM RA BR OVC007
     FM231600 36010KT 4SM -RA BR OVC015=



000
FTUS41 KALY 230200 AAA
TAFPOU
TAF AMD
KPOU 230228Z 2302/2324 36016G24KT P6SM -RA VCSH OVC014
     FM230400 35012KT 4SM -RA BR OVC010
      TEMPO 2304/2307 1SM RA BR OVC007
     FM231500 35010G17KT 6SM -RA BR OVC015=



000
FTUS41 KALY 222300 CCA
TAFPOU
TAF COR
KPOU 222358Z 2300/2324 01014G24KT 4SM -RA BR VCSH OVC013
     FM230300 35012KT 4SM -RA BR OVC010
      TEMPO 2303/2307 1SM RA BR OVC007
     FM231500 35010G17KT 6SM -RA BR OVC015=



000
FTUS41 KALY 222300 CCA
TAFPOU
TAF COR
KPOU 222358Z 2300/2324 01014G24KT 4SM -RA BR VCSH OVC013
     FM230300 35012KT 4SM -RA BR OVC010
      TEMPO 2303/2307 1SM RA BR OVC007
     FM231500 35010G17KT 6SM -RA BR OVC015=



000
FTUS41 KALY 222300 CCA
TAFALB
TAF COR
KALB 222354Z 2300/2324 01009G24KT P6SM -RA VCSH FEW022 SCT025
      OVC035
     FM230700 35011KT 3SM -RA BR OVC008
      TEMPO 2308/2312 1SM RA BR OVC007
     FM231700 34010KT 4SM -RA BR SCT008 OVC015=



000
FTUS41 KALY 222300 CCA
TAFALB
TAF COR
KALB 222354Z 2300/2324 01009G24KT P6SM -RA VCSH FEW022 SCT025
      OVC035
     FM230700 35011KT 3SM -RA BR OVC008
      TEMPO 2308/2312 1SM RA BR OVC007
     FM231700 34010KT 4SM -RA BR SCT008 OVC015=



000
FTUS41 KALY 222300
TAFALB
TAF
KALB 222322Z 2300/2324 01013KT P6SM VCSH BKN018 OVC027
     FM230700 35011KT 3SM -RA BR OVC008
      TEMPO 2308/2312 1SM RA BR OVC007
     FM231700 34010KT 4SM -RA BR SCT008 OVC015=



000
FTUS41 KALY 222300
TAFPOU
TAF
KPOU 222322Z 2300/2324 36012G19KT 6SM BR VCSH OVC011
     FM230300 35012KT 4SM -RA BR OVC010
      TEMPO 2303/2307 1SM RA BR OVC007
     FM231500 35010G17KT 6SM -RA BR OVC015=



000
FTUS41 KALY 222300
TAFGFL
TAF
KGFL 222322Z 2300/2324 36011G16KT P6SM VCSH FEW030 BKN035 OVC045
     FM230600 36011KT 3SM -RA BR BKN008 OVC012
      TEMPO 2307/2311 1SM RA BR OVC007
     FM231600 36010KT 4SM -RA BR OVC015=



000
FTUS41 KALY 222200 AAG
TAFGFL
TAF AMD
KGFL 222235Z 2223/2318 36011KT P6SM VCSH SCT022 OVC030
     FM230600 36011KT 3SM -RA BR BKN008 OVC012
      TEMPO 2307/2311 1SM RA BR OVC007
     FM231600 36010KT 4SM -RA BR OVC015=



000
FTUS41 KALY 222200 AAF
TAFGFL
TAF AMD
KGFL 222227Z 2222/2318 36011KT P6SM VCSH SCT022 OVC030
     FM230600 36011KT 3SM -RA BR BKN008 OVC012
      TEMPO 2307/2311 1SM RA BR OVC007
     FM231600 36010KT 4SM -RA BR OVC015=



000
FTUS41 KALY 222200 AAE
TAFGFL
TAF AMD
KGFL 222207Z 2222/2318 36011KT P6SM VCSH SCT022 OVC030
     FM230600 36011KT 3SM -RA BR BKN008 OVC012
      TEMPO 2307/2311 1SM RA BR OVC007
     FM231600 36010KT 4SM -RA BR OVC015=



000
FTUS41 KALY 222200 AAE
TAFPOU
TAF AMD
KPOU 222207Z 2222/2318 36009G19KT 3SM BR OVC013
     FM222300 36011KT 6SM -RA BR OVC012
     FM230300 35012KT 4SM -RA BR OVC010
      TEMPO 2303/2307 1SM RA BR OVC007
     FM231500 35010G17KT 6SM -RA BR OVC015=



000
FTUS41 KALY 222100 AAD
TAFGFL
TAF AMD
KGFL 222120Z 2221/2318 01009KT P6SM VCSH OVC020
     FM230600 36011KT 3SM -RA BR BKN008 OVC012
      TEMPO 2307/2311 1SM RA BR OVC007
     FM231600 36010KT 4SM -RA BR OVC015=



000
FTUS41 KALY 222100 AAC
TAFALB
TAF AMD
KALB 222119Z 2221/2318 02012G21KT P6SM -RA BKN017 OVC035
     FM222300 36010G17KT 4SM -RA BR SCT008 OVC015
     FM230700 35011KT 3SM -RA BR OVC008
      TEMPO 2308/2312 1SM RA BR OVC007
     FM231700 34010KT 4SM -RA BR SCT008 OVC015=



000
FTUS41 KALY 222100 AAD
TAFPOU
TAF AMD
KPOU 222119Z 2221/2318 36008KT 2SM -RA BR BKN014 OVC019
     FM222300 36011KT 6SM -RA BR OVC012
     FM230300 35012KT 4SM -RA BR OVC010
      TEMPO 2303/2307 1SM RA BR OVC007
     FM231500 35010G17KT 6SM -RA BR OVC015=



000
FTUS41 KALY 222000 AAC
TAFGFL
TAF AMD
KGFL 222014Z 2220/2318 36009KT P6SM VCSH SCT019 BKN028 OVC060
     FM222100 02010G17KT 4SM -RA BR SCT015 OVC025
     FM230600 36011KT 3SM -RA BR BKN008 OVC012
      TEMPO 2307/2311 1SM RA BR OVC007
     FM231600 36010KT 4SM -RA BR OVC015=



000
FTUS41 KALY 222000 AAB
TAFALB
TAF AMD
KALB 222009Z 2220/2318 02010G20KT P6SM SCT019 BKN026 OVC060
     FM222200 36010G17KT 4SM -RA BR SCT008 OVC015
     FM230700 35011KT 3SM -RA BR OVC008
      TEMPO 2308/2312 1SM RA BR OVC007
     FM231700 34010KT 4SM -RA BR SCT008 OVC015=



000
FTUS41 KALY 222000 AAB
TAFGFL
TAF AMD
KGFL 222007Z 2220/2318 02009KT P6SM -RA SCT019 SCT028 OVC060
     FM222100 02010G17KT 4SM -RA BR SCT015 OVC025
     FM230600 36011KT 3SM -RA BR BKN008 OVC012
      TEMPO 2307/2311 1SM RA BR OVC007
     FM231600 36010KT 4SM -RA BR OVC015=



000
FTUS41 KALY 221900 AAC
TAFPOU
TAF AMD
KPOU 221951Z 2220/2318 36009KT P6SM -RA OVC016
     FM222200 36011KT 6SM -RA BR OVC012
     FM230300 35012KT 4SM -RA BR OVC010
      TEMPO 2303/2307 1SM RA BR OVC007
     FM231500 35010G17KT 6SM -RA BR OVC015=



000
FTUS41 KALY 221900 AAB
TAFPOU
TAF AMD
KPOU 221901Z 2219/2318 36013G18KT 4SM HZ BKN017 OVC027
     FM222200 36011KT 6SM -RA BR OVC012
     FM230300 35012KT 4SM -RA BR OVC010
      TEMPO 2303/2307 1SM RA BR OVC007
     FM231500 35010G17KT 6SM -RA BR OVC015=



000
FTUS41 KALY 221800 AAA
TAFGFL
TAF AMD
KGFL 221832Z 2219/2318 03012G19KT P6SM -RA BKN026 OVC035
     FM222100 02010G17KT 4SM -RA BR SCT015 OVC025
     FM230600 36011KT 3SM -RA BR BKN008 OVC012
      TEMPO 2307/2311 1SM RA BR OVC007
     FM231600 36010KT 4SM -RA BR OVC015=



000
FTUS41 KALY 221800 AAA
TAFALB
TAF AMD
KALB 221831Z 2219/2318 01009G24KT P6SM SCT018 SCT028 OVC045
     FM222200 36010G17KT 4SM -RA BR SCT008 OVC015
     FM230700 35011KT 3SM -RA BR OVC008
      TEMPO 2308/2312 1SM RA BR OVC007
     FM231700 34010KT 4SM -RA BR SCT008 OVC015=



000
FTUS41 KALY 221800 AAA
TAFPOU
TAF AMD
KPOU 221831Z 2219/2318 36009G19KT P6SM SCT015 OVC024
     FM222200 36011KT 6SM -RA BR OVC012
     FM230300 35012KT 4SM -RA BR OVC010
      TEMPO 2303/2307 1SM RA BR OVC007
     FM231500 35010G17KT 6SM -RA BR OVC015=



000
FTUS41 KALY 221700
TAFPOU
TAF
KPOU 221722Z 2218/2318 36012KT P6SM BKN011 OVC022
     FM222200 36011KT 6SM -RA BR OVC012
     FM230300 35012KT 4SM -RA BR OVC010
      TEMPO 2303/2307 1SM RA BR OVC007
     FM231500 35010G17KT 6SM -RA BR OVC015=



000
FTUS41 KALY 221700
TAFALB
TAF
KALB 221722Z 2218/2318 01009KT P6SM FEW015 BKN028 OVC030
     FM222200 36010G17KT 4SM -RA BR SCT008 OVC015
     FM230700 35011KT 3SM -RA BR OVC008
      TEMPO 2308/2312 1SM RA BR OVC007
     FM231700 34010KT 4SM -RA BR SCT008 OVC015=



000
FTUS41 KALY 221700
TAFGFL
TAF
KGFL 221722Z 2218/2318 36008KT P6SM OVC026
     FM222100 02010G17KT 4SM -RA BR SCT015 OVC025
     FM230600 36011KT 3SM -RA BR BKN008 OVC012
      TEMPO 2307/2311 1SM RA BR OVC007
     FM231600 36010KT 4SM -RA BR OVC015=



000
FTUS41 KALY 221700
TAFGFL
TAF
KGFL 221722Z 2218/2318 36008KT P6SM OVC026
     FM222100 02010G17KT 4SM -RA BR SCT015 OVC025
     FM230600 36011KT 3SM -RA BR BKN008 OVC012
      TEMPO 2307/2311 1SM RA BR OVC007
     FM231600 36010KT 4SM -RA BR OVC015=



000
FTUS41 KALY 221700
TAFPOU
TAF
KPOU 221722Z 2218/2318 36012KT P6SM BKN011 OVC022
     FM222200 36011KT 6SM -RA BR OVC012
     FM230300 35012KT 4SM -RA BR OVC010
      TEMPO 2303/2307 1SM RA BR OVC007
     FM231500 35010G17KT 6SM -RA BR OVC015=



000
FTUS41 KALY 221700
TAFALB
TAF
KALB 221722Z 2218/2318 01009KT P6SM FEW015 BKN028 OVC030
     FM222200 36010G17KT 4SM -RA BR SCT008 OVC015
     FM230700 35011KT 3SM -RA BR OVC008
      TEMPO 2308/2312 1SM RA BR OVC007
     FM231700 34010KT 4SM -RA BR SCT008 OVC015=



000
FTUS41 KALY 221600 AAA
TAFALB
TAF AMD
KALB 221629Z 2216/2312 01009KT P6SM FEW015 BKN028 OVC030
     FM222000 35012G19KT 4SM -RA BR SCT008 OVC015
     FM230400 34012G19KT 3SM -RA BR OVC008=



000
FTUS41 KALY 221600 AAA
TAFALB
TAF AMD
KALB 221629Z 2216/2312 01009KT P6SM FEW015 BKN028 OVC030
     FM222000 35012G19KT 4SM -RA BR SCT008 OVC015
     FM230400 34012G19KT 3SM -RA BR OVC008=



000
FTUS41 KALY 221100 RRA
TAFGFL
TAF
KGFL 221146Z 2212/2312 36009KT P6SM FEW017 OVC025
      TEMPO 2212/2215 BKN015 OVC025
     FM221700 01011KT P6SM -SHRA SCT015 OVC025
     FM222100 01012G18KT 4SM -RA BR SCT008 OVC015
     FM230500 36012G18KT 3SM -RA BR BKN008 OVC012=



000
FTUS41 KALY 221100 RRA
TAFPOU
TAF
KPOU 221146Z 2212/2312 01010G15KT P6SM VCSH BKN011 OVC017
      TEMPO 2212/2214 BKN009 OVC015
     FM221500 01011KT P6SM -SHRA OVC018
     FM221800 01011KT 4SM -RA BR OVC015
     FM230200 36011KT 3SM -RA BR OVC009=



000
FTUS41 KALY 221100 RRA
TAFALB
TAF
KALB 221146Z 2212/2312 01007G15KT P6SM VCSH SCT011 OVC028
      TEMPO 2212/2214 OVC009
     FM221600 36010KT P6SM -SHRA OVC015
     FM222000 35012G19KT 4SM -RA BR SCT008 OVC015
     FM230400 34012G19KT 3SM -RA BR OVC008=



    US Dept of Commerce
    National Oceanic and Atmospheric Administration
    National Weather Service
    1325 East West Highway
    Silver Spring, MD 20910
    Page Author: NWS Internet Services Team
Disclaimer
Information Quality
Credits
Glossary
Privacy Policy
Freedom of Information Act (FOIA)
About Us
Career Opportunities